Aérodrome :
LOGIN :

S'inscrire | Disclaimer

   EN    FR    IT 

 










Légende :    VFR   VFR Marginal   IFR   IFR Intensif   IFR Très Intensif
Visi : 
Plafond : 
>= 8 km
>= 3000ft
5 à 8 km
1000 à 3000 ft
1500m à 5 km
500 à 1000 ft
800 à 1500m
200 à 500 ft
< 800m
< 200 ft
Symboles :   Orages  Brouillard  Fortes neiges  Fortes précipitations  Vent > 20 kt
SIGMETs :   Divers  Orages  Givrage  Turbulence  Onde Orograph.  Cendres Volcan.






- Altitude de l'aérodrome : 2265 ft
- Code IATA : CZL


DABC - Mohamed Boudiaf Int. Constantine

DERNIER METAR :
  • 221800Z 13015G25KT 9999 FEW026TCU SCT200 26/12 Q1011

METARs EXPIRÉS :
  • 221730Z 14017KT 9999 FEW030TCU 26/11 Q1011
  • 221700Z 13014KT 9999 FEW030TCU 27/11 Q1011
  • 221630Z 14016KT 9999 FEW030 28/11 Q1011
  • 221600Z 16020KT 9999 FEW030 29/11 Q1011
  • 221530Z 15019KT 9999 FEW030 30/10 Q1011

TAF TAF DABC
Valide du 22 à 18h jusqu'au 23 à 18h UTC


221700Z 2218/2318 14014KT 9999 FEW030
TEMPO 2218/2224 14015G25KT FEW030TCU FEW033CB
PROB30
TEMPO 2222/2306 14025G35KT 3000 -TSRA FEW026CB



MET'MAP, la Météo Aéronautique d'un coup d'oeil ! - Copyright ORBIFLY Décembre 2007 - Disclaimer

ORBIFLY MET'MAP TEAM :

Programmation & Développement : Alexandra Zaïnal
Conception & Développement : Baudouin d'Aumeries
Co-Programmation & Développement : Marc-Olivier Méhu
Soutien technique & logistique : Manuel Goepfert

Contact : metmap@orbifly.com




SOURCES & CREDITS :

   NOAA